Time;durP1;ratioP1;P1;durP2;ratioP2;P2;SDS_P1;SDS_P2;PMS_P1;PMS_P2;Temp;Humidity;BMP_temperature;BMP_pressure;BME280_temperature;BME280_humidity;BME280_pressure;Samples;Min_cycle;Max_cycle;Signal;HPM_P1;HPM_P2
2023/03/13 00:02:26;;;;;;;14.00;3.53;;;10.10;99.90;;;;;;10323990;28;20764;-73
2023/03/13 00:07:27;;;;;;;12.87;3.57;;;10.10;99.90;;;;;;10317487;28;20317;-74
2023/03/13 00:12:27;;;;;;;14.07;3.53;;;10.10;99.90;;;;;;10317479;28;20230;-72
2023/03/13 00:17:28;;;;;;;16.10;3.53;;;10.20;99.90;;;;;;10322702;28;20255;-73
2023/03/13 00:22:28;;;;;;;11.57;3.40;;;10.20;99.90;;;;;;10325651;28;20276;-72
2023/03/13 00:27:33;;;;;;;13.47;3.20;;;10.20;99.90;;;;;;10323765;28;20280;-72
2023/03/13 00:32:40;;;;;;;13.73;3.53;;;10.20;99.90;;;;;;10324366;28;20222;-72
2023/03/13 00:37:42;;;;;;;12.17;3.20;;;10.30;99.90;;;;;;10318255;28;20601;-73
2023/03/13 00:42:42;;;;;;;16.37;3.73;;;10.30;99.90;;;;;;10321394;28;20248;-73
2023/03/13 00:47:43;;;;;;;14.37;3.63;;;10.40;99.90;;;;;;10313532;28;20357;-72
2023/03/13 00:52:43;;;;;;;12.87;3.17;;;10.40;99.90;;;;;;10322993;28;20221;-74
2023/03/13 00:57:44;;;;;;;13.60;3.87;;;10.50;99.90;;;;;;10319838;28;20246;-73
2023/03/13 01:02:44;;;;;;;14.30;3.57;;;10.50;99.90;;;;;;10313846;28;20217;-74
2023/03/13 01:07:45;;;;;;;13.47;3.43;;;10.60;99.90;;;;;;10322694;28;20233;-72
2023/03/13 01:12:45;;;;;;;11.67;3.43;;;10.60;99.90;;;;;;10322036;28;20300;-73
2023/03/13 01:17:46;;;;;;;12.20;3.27;;;10.70;99.90;;;;;;10318921;28;20226;-72
2023/03/13 01:22:47;;;;;;;10.90;2.83;;;10.70;99.90;;;;;;10322352;28;20889;-71
2023/03/13 01:27:47;;;;;;;12.50;3.13;;;10.80;99.90;;;;;;10312411;28;20226;-73
2023/03/13 01:32:48;;;;;;;14.77;3.50;;;10.80;99.90;;;;;;10320508;28;20697;-71
2023/03/13 01:37:48;;;;;;;12.13;3.50;;;10.90;99.90;;;;;;10313626;28;20598;-72
2023/03/13 01:42:59;;;;;;;11.17;3.30;;;10.80;99.90;;;;;;10329983;28;20221;-73
2023/03/13 01:48:00;;;;;;;11.03;2.70;;;10.90;99.90;;;;;;10316339;28;20229;-72
2023/03/13 01:53:00;;;;;;;11.10;2.77;;;10.90;99.90;;;;;;10311282;28;20221;-72
2023/03/13 01:58:01;;;;;;;8.47;2.83;;;10.90;99.90;;;;;;10326767;28;20233;-69
2023/03/13 02:03:07;;;;;;;10.00;2.67;;;11.00;99.90;;;;;;10312455;28;20222;-70
2023/03/13 02:08:22;;;;;;;12.33;3.23;;;11.00;99.90;;;;;;10316545;28;20230;-69
2023/03/13 02:13:24;;;;;;;10.17;2.87;;;11.00;99.90;;;;;;10335155;28;20226;-68
2023/03/13 02:18:25;;;;;;;11.03;3.00;;;11.00;99.90;;;;;;10320597;28;20214;-69
2023/03/13 02:23:40;;;;;;;13.37;3.23;;;11.00;99.90;;;;;;10318009;28;20348;-70
2023/03/13 02:28:41;;;;;;;12.67;3.50;;;11.00;99.90;;;;;;10321934;28;20233;-70
2023/03/13 02:33:43;;;;;;;7.53;2.60;;;10.90;99.90;;;;;;10319325;28;20223;-70
2023/03/13 02:38:58;;;;;;;10.00;2.87;;;10.90;99.90;;;;;;10321267;28;20304;-68
2023/03/13 02:43:59;;;;;;;6.87;2.77;;;10.90;99.90;;;;;;10318543;28;20217;-70
2023/03/13 02:49:19;;;;;;;9.03;2.63;;;10.90;99.90;;;;;;10325160;28;20603;-69
2023/03/13 02:54:23;;;;;;;12.30;3.93;;;11.00;99.90;;;;;;10315441;28;20312;-70
2023/03/13 02:59:24;;;;;;;12.03;3.17;;;10.80;99.90;;;;;;10325307;28;20225;-69
2023/03/13 03:04:25;;;;;;;10.40;3.00;;;10.60;99.90;;;;;;10321336;28;20280;-75
2023/03/13 03:09:26;;;;;;;11.57;2.80;;;10.50;99.90;;;;;;10324927;28;20279;-73
2023/03/13 03:14:26;;;;;;;10.33;2.93;;;10.40;99.90;;;;;;10321642;28;20854;-69
2023/03/13 03:19:27;;;;;;;8.17;2.47;;;10.40;99.90;;;;;;10317630;28;20218;-69
2023/03/13 03:24:28;;;;;;;12.47;3.10;;;10.40;99.90;;;;;;10325372;28;20221;-70
2023/03/13 03:29:31;;;;;;;10.30;2.70;;;10.50;99.90;;;;;;10320387;28;20241;-70
2023/03/13 03:34:32;;;;;;;9.53;2.60;;;10.60;99.90;;;;;;10321041;28;20701;-70
2023/03/13 03:39:33;;;;;;;12.03;3.30;;;10.60;99.90;;;;;;10320270;28;20221;-72
2023/03/13 03:44:33;;;;;;;10.77;2.73;;;10.60;99.90;;;;;;10318825;28;20629;-73
2023/03/13 03:49:34;;;;;;;15.87;3.03;;;10.20;99.90;;;;;;10321990;28;20249;-70
2023/03/13 03:54:37;;;;;;;22.07;3.60;;;9.70;99.90;;;;;;10326738;28;20720;-71
2023/03/13 03:59:38;;;;;;;11.80;3.33;;;9.40;99.90;;;;;;10324882;28;20226;-70
2023/03/13 04:04:39;;;;;;;16.70;3.17;;;9.20;99.90;;;;;;10322464;28;20309;-70
2023/03/13 04:09:39;;;;;;;17.40;3.30;;;9.20;99.90;;;;;;10322580;28;20688;-71
2023/03/13 04:14:40;;;;;;;18.23;3.23;;;9.20;99.90;;;;;;10317109;28;20911;-70
2023/03/13 04:19:40;;;;;;;22.60;3.40;;;9.20;99.90;;;;;;10327730;28;20223;-70
2023/03/13 04:24:41;;;;;;;15.90;3.20;;;9.30;99.90;;;;;;10319182;28;20222;-69
2023/03/13 04:29:42;;;;;;;13.17;3.13;;;9.40;99.90;;;;;;10319086;28;20300;-71
2023/03/13 04:34:42;;;;;;;25.00;3.53;;;9.40;99.90;;;;;;10316671;28;20217;-70
2023/03/13 04:39:43;;;;;;;9.97;3.43;;;9.50;99.90;;;;;;10312103;28;20244;-70
2023/03/13 04:44:46;;;;;;;11.50;2.90;;;9.60;99.90;;;;;;10324599;28;20248;-70
2023/03/13 04:49:47;;;;;;;12.90;3.07;;;9.70;99.90;;;;;;10326309;28;20218;-70
2023/03/13 04:54:49;;;;;;;10.53;2.70;;;9.70;99.90;;;;;;10316272;28;20265;-70
2023/03/13 04:59:50;;;;;;;8.67;2.37;;;9.80;99.90;;;;;;10322649;28;20221;-71
2023/03/13 05:04:51;;;;;;;7.53;2.43;;;9.80;99.90;;;;;;10312091;28;20211;-71
2023/03/13 05:09:51;;;;;;;11.03;2.67;;;9.90;99.90;;;;;;10323885;28;20221;-71
2023/03/13 05:14:52;;;;;;;7.37;2.33;;;9.90;99.90;;;;;;10317418;28;20267;-70
2023/03/13 05:19:53;;;;;;;10.23;2.80;;;10.00;99.90;;;;;;10317776;28;20214;-72
2023/03/13 05:24:53;;;;;;;7.47;2.00;;;10.00;99.90;;;;;;10310408;28;20218;-73
2023/03/13 05:29:57;;;;;;;6.97;2.27;;;10.10;99.90;;;;;;10325089;28;20552;-72
2023/03/13 05:34:57;;;;;;;5.03;1.90;;;10.10;99.90;;;;;;10313175;28;20222;-72
2023/03/13 05:39:58;;;;;;;3.87;1.77;;;10.20;99.90;;;;;;10317161;28;20222;-71
2023/03/13 05:44:58;;;;;;;4.60;1.83;;;10.30;99.90;;;;;;10327001;28;20225;-71
2023/03/13 05:49:59;;;;;;;5.43;1.93;;;10.30;99.90;;;;;;10325685;28;20261;-73
2023/03/13 05:54:59;;;;;;;5.27;1.90;;;10.40;99.90;;;;;;10321144;28;20753;-72
2023/03/13 06:00:00;;;;;;;5.43;1.90;;;10.50;99.90;;;;;;10338813;28;20308;-70
2023/03/13 06:05:01;;;;;;;4.60;1.73;;;10.60;99.90;;;;;;10327406;28;20277;-70
2023/03/13 06:10:02;;;;;;;4.17;1.50;;;10.60;99.90;;;;;;10321020;28;20221;-71
2023/03/13 06:15:06;;;;;;;6.60;2.20;;;10.70;99.90;;;;;;10326242;28;20222;-71
2023/03/13 06:20:07;;;;;;;5.63;1.93;;;10.70;99.90;;;;;;10329708;28;20803;-69
2023/03/13 06:25:08;;;;;;;4.23;1.60;;;10.80;99.90;;;;;;10330342;28;20206;-71
2023/03/13 06:30:09;;;;;;;5.73;1.70;;;10.80;99.90;;;;;;10325009;28;20197;-71
2023/03/13 06:35:10;;;;;;;3.77;1.70;;;10.90;99.90;;;;;;10330347;28;20202;-72
2023/03/13 06:40:11;;;;;;;2.43;1.50;;;10.90;99.90;;;;;;10320889;28;20201;-71
2023/03/13 06:45:12;;;;;;;4.27;1.80;;;11.00;99.90;;;;;;10325809;28;20321;-73
2023/03/13 06:50:13;;;;;;;6.90;1.93;;;11.00;99.90;;;;;;10324370;28;20225;-74
2023/03/13 06:55:13;;;;;;;5.90;1.70;;;11.10;99.90;;;;;;10327990;28;20214;-72
2023/03/13 07:00:14;;;;;;;3.93;1.50;;;11.20;99.90;;;;;;10328440;28;20194;-71
2023/03/13 07:05:15;;;;;;;1.70;1.13;;;11.30;99.90;;;;;;10324669;28;20213;-71
2023/03/13 07:10:16;;;;;;;2.53;1.47;;;11.30;99.90;;;;;;10321795;28;20170;-74
2023/03/13 07:15:17;;;;;;;2.37;1.23;;;11.50;99.90;;;;;;10326272;28;20186;-71
2023/03/13 07:20:17;;;;;;;3.13;1.67;;;11.50;99.90;;;;;;10322579;28;20197;-71
2023/03/13 07:25:18;;;;;;;3.07;1.30;;;11.60;99.90;;;;;;10322620;28;20205;-72
2023/03/13 07:30:19;;;;;;;1.93;1.10;;;11.70;99.90;;;;;;10329308;28;20182;-72
2023/03/13 07:35:20;;;;;;;2.73;1.07;;;11.80;99.90;;;;;;10324399;28;20248;-72
2023/03/13 07:40:20;;;;;;;3.07;1.10;;;11.90;99.90;;;;;;10323893;28;20201;-72
2023/03/13 07:45:33;;;;;;;2.57;1.10;;;12.00;99.90;;;;;;10326606;28;20238;-69
2023/03/13 07:50:34;;;;;;;1.73;0.97;;;12.10;99.90;;;;;;10326329;28;20596;-70
2023/03/13 07:55:34;;;;;;;2.13;1.13;;;12.10;99.90;;;;;;10320481;28;20225;-72
2023/03/13 08:00:35;;;;;;;3.10;1.27;;;12.20;99.90;;;;;;10324773;28;20579;-71
2023/03/13 08:05:36;;;;;;;1.93;1.00;;;12.30;99.90;;;;;;10328654;28;20254;-70
2023/03/13 08:10:36;;;;;;;1.30;1.20;;;12.30;99.90;;;;;;10317829;28;20760;-71
2023/03/13 08:15:37;;;;;;;2.40;1.03;;;12.50;99.90;;;;;;10325377;28;20240;-71
2023/03/13 08:20:39;;;;;;;1.53;1.30;;;12.80;99.90;;;;;;10323495;28;20226;-71
2023/03/13 08:25:39;;;;;;;1.60;1.50;;;13.00;99.90;;;;;;10322270;28;20584;-70
2023/03/13 08:30:40;;;;;;;5.13;1.50;;;13.30;99.90;;;;;;10324528;28;20240;-71
2023/03/13 08:35:40;;;;;;;3.40;1.77;;;13.70;99.90;;;;;;10325718;28;20919;-71
2023/03/13 08:40:41;;;;;;;2.97;1.60;;;13.90;99.90;;;;;;10325844;28;20225;-70
2023/03/13 08:45:42;;;;;;;3.00;1.30;;;13.90;99.90;;;;;;10324198;28;20661;-70
2023/03/13 08:50:42;;;;;;;3.10;1.30;;;13.80;99.90;;;;;;10326215;28;20344;-71
2023/03/13 08:55:43;;;;;;;2.67;1.20;;;13.80;99.90;;;;;;10322616;28;20665;-70
2023/03/13 09:00:43;;;;;;;1.80;1.27;;;13.90;99.90;;;;;;10326202;28;20261;-71
2023/03/13 09:05:46;;;;;;;2.63;1.37;;;13.80;99.90;;;;;;10317483;28;20697;-71
2023/03/13 09:10:46;;;;;;;1.77;1.43;;;13.70;99.90;;;;;;10321275;28;20325;-71
2023/03/13 09:16:11;;;;;;;2.03;1.17;;;13.70;99.90;;;;;;10322451;28;20218;-71
2023/03/13 09:21:15;;;;;;;2.77;1.30;;;13.80;99.90;;;;;;10332476;28;20687;-73
2023/03/13 09:26:18;;;;;;;3.67;1.40;;;13.90;99.90;;;;;;10331940;28;20229;-73
2023/03/13 09:31:22;;;;;;;2.90;1.23;;;14.00;99.90;;;;;;10331255;28;20580;-75
2023/03/13 09:36:23;;;;;;;2.60;1.40;;;14.10;99.90;;;;;;10329195;28;20253;-74
2023/03/13 09:41:42;;;;;;;3.33;1.40;;;14.50;99.90;;;;;;10328727;28;20225;-73
2023/03/13 09:46:47;;;;;;;3.73;1.23;;;14.80;99.90;;;;;;10330114;28;20577;-73
2023/03/13 09:51:55;;;;;;;2.80;1.43;;;14.90;99.90;;;;;;10329556;28;20222;-74
2023/03/13 09:57:13;;;;;;;2.43;1.47;;;15.10;99.90;;;;;;10329479;28;20345;-73
2023/03/13 10:02:35;;;;;;;2.63;1.10;;;15.30;99.90;;;;;;10325230;28;20744;-73
2023/03/13 10:07:36;;;;;;;3.20;1.53;;;15.60;99.90;;;;;;10335000;28;20239;-74
2023/03/13 10:12:43;;;;;;;1.80;1.20;;;17.20;99.90;;;;;;10325037;28;20224;-75
2023/03/13 10:17:44;;;;;;;2.33;1.47;;;19.90;99.90;;;;;;10345541;28;20714;-75
2023/03/13 10:22:51;;;;;;;5.03;1.40;;;20.40;99.90;;;;;;10327727;28;20228;-71
2023/03/13 10:27:52;;;;;;;1.83;1.17;;;19.40;99.90;;;;;;10327188;28;20240;-72
2023/03/13 10:33:14;;;;;;;2.27;1.40;;;18.10;99.90;;;;;;10330015;28;20239;-72
2023/03/13 10:38:18;;;;;;;3.07;1.70;;;17.10;99.90;;;;;;10321599;28;20246;-70
2023/03/13 10:43:20;;;;;;;4.07;1.60;;;16.50;99.90;;;;;;10324248;28;20313;-71
2023/03/13 10:48:23;;;;;;;2.10;1.40;;;16.10;99.90;;;;;;10328967;28;20237;-72
2023/03/13 10:53:29;;;;;;;2.17;1.60;;;15.90;99.90;;;;;;10325104;28;20241;-73
2023/03/13 10:58:48;;;;;;;4.07;1.80;;;15.90;99.90;;;;;;10325145;28;20242;-71
2023/03/13 11:03:50;;;;;;;4.50;2.10;;;16.10;99.90;;;;;;10318447;28;20226;-73
2023/03/13 11:09:09;;;;;;;4.23;1.60;;;16.30;99.90;;;;;;10318832;28;20227;-71
2023/03/13 11:14:14;;;;;;;3.57;1.67;;;16.30;99.90;;;;;;10325782;28;20284;-71
2023/03/13 11:19:41;;;;;;;3.20;1.80;;;16.80;99.90;;;;;;10322464;28;20264;-71
2023/03/13 11:24:48;;;;;;;7.00;1.80;;;17.30;99.90;;;;;;10323175;28;20227;-71
2023/03/13 11:30:17;;;;;;;6.53;1.70;;;17.60;99.90;;;;;;10325945;28;20234;-69
2023/03/13 11:35:26;;;;;;;3.53;1.57;;;18.20;99.90;;;;;;10321050;28;20235;-70
2023/03/13 11:40:30;;;;;;;5.43;2.00;;;18.20;99.90;;;;;;10317520;28;20271;-75
2023/03/13 11:45:46;;;;;;;3.40;1.90;;;17.90;99.90;;;;;;10312779;28;20247;-74
2023/03/13 11:50:55;;;;;;;5.53;1.43;;;17.80;99.90;;;;;;10327090;28;20224;-74
2023/03/13 11:56:13;;;;;;;3.80;1.80;;;17.90;99.90;;;;;;10316947;28;20242;-74
2023/03/13 12:01:21;;;;;;;3.10;1.50;;;18.00;99.90;;;;;;10344044;28;20257;-73
2023/03/13 12:06:43;;;;;;;2.33;1.70;;;18.00;99.90;;;;;;10323204;28;20227;-73
2023/03/13 12:12:10;;;;;;;3.00;1.53;;;17.80;99.90;;;;;;10325700;28;20243;-73
2023/03/13 12:17:30;;;;;;;5.20;1.67;;;17.70;99.90;;;;;;10323673;28;20681;-72
2023/03/13 12:22:43;;;;;;;2.87;1.50;;;17.80;99.90;;;;;;10319304;28;20222;-71
2023/03/13 12:27:50;;;;;;;1.93;1.47;;;18.00;99.90;;;;;;10319011;28;20246;-70
2023/03/13 12:33:04;;;;;;;2.90;1.40;;;18.40;99.90;;;;;;10326131;28;20258;-70
2023/03/13 12:38:15;;;;;;;3.63;1.73;;;18.90;99.90;;;;;;10322900;28;20227;-70
2023/03/13 12:43:23;;;;;;;2.23;1.40;;;19.10;99.90;;;;;;10322314;28;21731;-71
2023/03/13 12:48:57;;;;;;;2.60;1.50;;;19.00;99.90;;;;;;10317671;28;20815;-71
2023/03/13 12:54:16;;;;;;;3.20;1.60;;;18.80;99.90;;;;;;10308038;28;20664;-71
2023/03/13 12:59:33;;;;;;;2.97;1.60;;;18.60;99.90;;;;;;10352145;28;20642;-71
2023/03/13 13:04:43;;;;;;;3.60;1.47;;;18.20;99.90;;;;;;10320171;28;20230;-71
2023/03/13 13:10:00;;;;;;;4.70;2.43;;;18.10;99.90;;;;;;10319850;28;20240;-71
2023/03/13 13:15:22;;;;;;;4.77;1.83;;;18.30;99.90;;;;;;10321836;28;20231;-71
2023/03/13 13:20:35;;;;;;;2.97;1.73;;;18.40;99.90;;;;;;10308774;28;20312;-72
2023/03/13 13:25:36;;;;;;;4.00;2.10;;;18.50;99.90;;;;;;10322600;28;20570;-72
2023/03/13 13:30:36;;;;;;;1.70;1.60;;;18.50;99.90;;;;;;10321052;28;20232;-72
2023/03/13 13:35:37;;;;;;;3.33;2.00;;;18.80;99.90;;;;;;10316905;28;20320;-72
2023/03/13 13:40:38;;;;;;;1.97;1.10;;;19.10;99.90;;;;;;10316446;28;20262;-71
2023/03/13 13:45:59;;;;;;;5.17;1.10;;;19.60;99.90;;;;;;10313770;28;20236;-72
2023/03/13 13:51:10;;;;;;;1.90;1.10;;;19.60;99.90;;;;;;10318035;28;20220;-70
2023/03/13 13:56:50;;;;;;;1.90;1.10;;;19.40;99.90;;;;;;10327190;28;20235;-72
2023/03/13 14:02:09;;;;;;;3.90;1.10;;;19.50;99.90;;;;;;10322072;28;20214;-70
2023/03/13 14:07:34;;;;;;;1.90;1.00;;;19.60;99.90;;;;;;10321216;28;20747;-70
2023/03/13 14:12:37;;;;;;;1.53;1.03;;;19.90;99.90;;;;;;10311134;28;20256;-74
2023/03/13 14:17:47;;;;;;;1.60;1.10;;;20.00;99.90;;;;;;10329966;28;20769;-75
2023/03/13 14:22:50;;;;;;;1.80;1.10;;;19.90;99.90;;;;;;10326257;28;20226;-75
2023/03/13 14:27:52;;;;;;;1.30;1.00;;;19.80;99.90;;;;;;10328974;28;20260;-76
2023/03/13 14:32:53;;;;;;;2.47;1.20;;;19.80;99.90;;;;;;10325061;28;20227;-74
2023/03/13 14:38:01;;;;;;;2.90;1.27;;;19.80;99.90;;;;;;10329304;28;20242;-73
2023/03/13 14:43:02;;;;;;;3.70;1.33;;;19.60;99.90;;;;;;10323999;28;20742;-74
2023/03/13 14:48:05;;;;;;;2.13;0.93;;;19.40;99.90;;;;;;10322310;28;20227;-77
2023/03/13 14:53:18;;;;;;;4.00;0.90;;;19.20;99.90;;;;;;10321421;28;20255;-74
2023/03/13 14:58:19;;;;;;;1.30;1.10;;;19.10;99.90;;;;;;10315319;28;20314;-72
2023/03/13 15:03:24;;;;;;;1.53;1.33;;;18.80;99.90;;;;;;10327186;28;20675;-73
2023/03/13 15:08:24;;;;;;;2.20;1.27;;;18.70;99.90;;;;;;10318374;28;20232;-73
2023/03/13 15:13:32;;;;;;;1.50;1.20;;;18.60;99.90;;;;;;10328590;28;20220;-73
2023/03/13 15:18:33;;;;;;;1.47;1.37;;;18.40;99.90;;;;;;10319746;28;20220;-70
2023/03/13 15:23:34;;;;;;;3.20;1.30;;;18.20;99.90;;;;;;10323304;28;20452;-73
2023/03/13 15:28:35;;;;;;;2.80;1.20;;;18.10;99.90;;;;;;10321041;28;20275;-71
2023/03/13 15:33:35;;;;;;;2.83;1.30;;;18.10;99.90;;;;;;10322434;28;20222;-72
2023/03/13 15:38:37;;;;;;;2.23;0.97;;;18.00;99.90;;;;;;10324951;28;20662;-70
2023/03/13 15:43:38;;;;;;;6.10;1.00;;;17.90;99.90;;;;;;10320152;28;20224;-71
2023/03/13 15:48:40;;;;;;;12.57;2.33;;;17.60;99.90;;;;;;10328392;28;20595;-72
2023/03/13 15:53:41;;;;;;;7.03;2.60;;;15.30;99.90;;;;;;10322518;28;20321;-71
2023/03/13 15:58:44;;;;;;;10.33;2.60;;;13.30;99.90;;;;;;10326566;28;20222;-71
2023/03/13 16:03:46;;;;;;;7.17;2.27;;;12.60;99.90;;;;;;10330348;28;20217;-69
2023/03/13 16:08:47;;;;;;;7.73;3.03;;;12.20;99.90;;;;;;10325135;28;20229;-73
2023/03/13 16:13:47;;;;;;;5.10;2.03;;;12.10;99.90;;;;;;10318905;28;20247;-73
2023/03/13 16:18:51;;;;;;;6.67;2.50;;;12.00;99.90;;;;;;10319399;28;20284;-72
2023/03/13 16:23:52;;;;;;;10.00;2.30;;;12.00;99.90;;;;;;10319387;28;20241;-71
2023/03/13 16:28:54;;;;;;;10.10;2.27;;;11.90;99.90;;;;;;10321623;28;20612;-73
2023/03/13 16:33:57;;;;;;;8.53;2.23;;;11.70;99.90;;;;;;10340667;28;20409;-72
2023/03/13 16:38:59;;;;;;;7.07;2.57;;;11.60;99.90;;;;;;10310962;28;20214;-73
2023/03/13 16:44:01;;;;;;;5.13;2.17;;;11.60;99.90;;;;;;10309418;28;20701;-72
2023/03/13 16:49:03;;;;;;;9.67;2.83;;;11.70;99.90;;;;;;10303769;28;20227;-72
2023/03/13 16:54:06;;;;;;;7.13;2.83;;;11.70;99.90;;;;;;10309370;28;20229;-72
2023/03/13 16:59:16;;;;;;;6.83;2.97;;;11.80;99.90;;;;;;10310863;28;20767;-72
2023/03/13 17:04:17;;;;;;;6.63;2.50;;;11.90;99.90;;;;;;10303040;28;20934;-71
2023/03/13 17:09:17;;;;;;;10.73;2.70;;;11.90;99.90;;;;;;10310368;28;20236;-73
2023/03/13 17:14:18;;;;;;;5.40;2.77;;;12.00;99.90;;;;;;10310830;28;20221;-73
2023/03/13 17:19:18;;;;;;;6.23;2.97;;;12.10;99.90;;;;;;10320947;28;20226;-72
2023/03/13 17:24:19;;;;;;;5.93;3.97;;;12.20;99.90;;;;;;10309645;28;20258;-73
2023/03/13 17:29:19;;;;;;;6.20;3.23;;;12.20;99.90;;;;;;10302652;28;20230;-72
2023/03/13 17:34:22;;;;;;;7.17;3.43;;;12.10;99.90;;;;;;10309851;28;20224;-73
2023/03/13 17:39:23;;;;;;;5.40;3.10;;;12.00;99.90;;;;;;10310567;28;20218;-73
2023/03/13 17:44:24;;;;;;;7.00;2.93;;;12.00;99.90;;;;;;10313483;28;20220;-72
2023/03/13 17:49:24;;;;;;;9.83;3.37;;;11.90;99.90;;;;;;10321032;28;20222;-72
2023/03/13 17:54:25;;;;;;;8.00;4.00;;;12.00;99.90;;;;;;10332202;28;20252;-73
2023/03/13 17:59:26;;;;;;;7.80;3.70;;;12.10;99.90;;;;;;10311106;28;20214;-72
2023/03/13 18:04:27;;;;;;;9.73;3.53;;;12.20;99.90;;;;;;10319289;28;20272;-71
2023/03/13 18:09:31;;;;;;;5.47;3.43;;;12.20;99.90;;;;;;10316565;28;20226;-72
2023/03/13 18:14:31;;;;;;;11.03;3.93;;;12.30;99.90;;;;;;10320188;28;20218;-71
2023/03/13 18:19:32;;;;;;;5.07;3.63;;;12.40;99.90;;;;;;10315747;28;20281;-71
2023/03/13 18:24:32;;;;;;;11.57;4.50;;;12.40;99.90;;;;;;10318011;28;20217;-71
2023/03/13 18:29:33;;;;;;;10.67;4.00;;;12.50;99.90;;;;;;10313632;28;20226;-72
2023/03/13 18:34:34;;;;;;;11.20;4.10;;;12.50;99.90;;;;;;10312209;28;20238;-72
2023/03/13 18:39:34;;;;;;;4.83;3.07;;;12.50;99.90;;;;;;10317096;28;20686;-72
2023/03/13 18:44:35;;;;;;;8.27;3.20;;;12.50;99.90;;;;;;10313973;28;20238;-71
2023/03/13 18:49:36;;;;;;;5.23;3.00;;;12.50;99.90;;;;;;10316103;28;20229;-72
2023/03/13 18:54:37;;;;;;;6.17;3.20;;;12.50;99.90;;;;;;10329025;28;20279;-72
2023/03/13 18:59:37;;;;;;;5.67;3.20;;;12.50;99.90;;;;;;10314516;28;20222;-72
2023/03/13 19:04:38;;;;;;;7.20;3.20;;;12.50;99.90;;;;;;10318208;28;20620;-72
2023/03/13 19:09:38;;;;;;;5.07;2.77;;;12.50;99.90;;;;;;10320635;28;20225;-72
2023/03/13 19:14:39;;;;;;;5.87;2.53;;;12.40;99.90;;;;;;10320955;28;20607;-73
2023/03/13 19:19:39;;;;;;;4.43;2.00;;;12.40;99.90;;;;;;10311421;28;20218;-74
2023/03/13 19:24:40;;;;;;;1.93;1.40;;;12.40;99.90;;;;;;10323253;28;20689;-74
2023/03/13 19:29:41;;;;;;;1.90;1.37;;;12.30;99.90;;;;;;10321569;28;20230;-74
2023/03/13 19:34:41;;;;;;;2.47;1.20;;;12.30;99.90;;;;;;10318291;28;20214;-74
2023/03/13 19:39:42;;;;;;;2.17;1.50;;;12.20;99.90;;;;;;10318037;28;20276;-73
2023/03/13 19:44:43;;;;;;;4.27;1.20;;;12.20;99.90;;;;;;10321917;28;20230;-73
2023/03/13 19:49:44;;;;;;;2.30;1.00;;;12.20;99.90;;;;;;10309076;28;20231;-74
2023/03/13 19:54:44;;;;;;;2.83;1.30;;;12.20;99.90;;;;;;10309417;28;20304;-74
2023/03/13 19:59:45;;;;;;;1.70;1.20;;;12.20;99.90;;;;;;10313025;28;20229;-74
2023/03/13 20:04:45;;;;;;;1.07;0.70;;;12.20;99.90;;;;;;10320944;28;20229;-75
2023/03/13 20:09:46;;;;;;;2.23;1.00;;;12.20;99.90;;;;;;10303850;28;20709;-73
2023/03/13 20:14:46;;;;;;;2.43;0.97;;;12.10;99.90;;;;;;10315187;28;20222;-73
2023/03/13 20:19:47;;;;;;;3.03;1.20;;;11.80;99.90;;;;;;10308936;28;20689;-73
2023/03/13 20:24:48;;;;;;;2.70;1.23;;;11.40;99.90;;;;;;10314187;28;20250;-73
2023/03/13 20:29:48;;;;;;;1.63;1.10;;;11.20;99.90;;;;;;10324846;28;20249;-74
2023/03/13 20:34:49;;;;;;;1.53;0.90;;;11.10;99.90;;;;;;10314842;28;20223;-73
2023/03/13 20:39:49;;;;;;;2.37;0.90;;;11.10;99.90;;;;;;10318691;28;20273;-72
2023/03/13 20:44:50;;;;;;;1.20;1.10;;;11.00;99.90;;;;;;10304547;28;20382;-73
2023/03/13 20:49:51;;;;;;;5.53;0.87;;;11.00;99.90;;;;;;10305942;28;20222;-74
2023/03/13 20:54:51;;;;;;;0.83;0.70;;;11.10;99.90;;;;;;10298087;28;20285;-72
2023/03/13 20:59:52;;;;;;;1.30;0.57;;;11.10;99.90;;;;;;10303597;28;20219;-74
2023/03/13 21:04:52;;;;;;;1.37;0.60;;;11.10;99.90;;;;;;10302795;28;20240;-74
2023/03/13 21:09:53;;;;;;;1.07;0.50;;;11.10;99.90;;;;;;10317650;28;20272;-73
2023/03/13 21:14:54;;;;;;;1.00;0.70;;;11.10;99.90;;;;;;10323346;28;20604;-73
2023/03/13 21:19:54;;;;;;;1.60;0.60;;;11.10;99.90;;;;;;10309907;28;20280;-73
2023/03/13 21:24:55;;;;;;;1.50;0.57;;;11.10;99.90;;;;;;10311353;28;20237;-72
2023/03/13 21:29:55;;;;;;;0.83;0.63;;;11.10;99.90;;;;;;10307507;28;20328;-73
2023/03/13 21:34:56;;;;;;;0.63;0.57;;;11.10;99.90;;;;;;10319095;28;20217;-73
2023/03/13 21:39:57;;;;;;;2.63;0.83;;;11.10;99.90;;;;;;10310572;28;20221;-72
2023/03/13 21:44:58;;;;;;;1.10;0.57;;;11.10;99.90;;;;;;10311077;28;20229;-73
2023/03/13 21:49:59;;;;;;;1.57;0.90;;;11.10;99.90;;;;;;10308200;28;20280;-72
2023/03/13 21:55:00;;;;;;;1.97;1.00;;;11.10;99.90;;;;;;10309168;28;20217;-73
2023/03/13 22:00:01;;;;;;;0.80;0.60;;;11.10;99.90;;;;;;10326569;28;20288;-74
2023/03/13 22:05:02;;;;;;;1.47;0.63;;;11.10;99.90;;;;;;10313302;28;20230;-71
2023/03/13 22:10:03;;;;;;;0.63;0.60;;;11.10;99.90;;;;;;10307691;28;20226;-71
2023/03/13 22:15:05;;;;;;;1.03;0.80;;;11.00;99.90;;;;;;10303355;28;20215;-74
2023/03/13 22:20:07;;;;;;;1.83;0.80;;;11.00;99.90;;;;;;10308180;28;20221;-71
2023/03/13 22:25:08;;;;;;;1.73;0.70;;;11.00;99.90;;;;;;10310366;28;20191;-73
2023/03/13 22:30:10;;;;;;;3.10;0.93;;;11.00;99.90;;;;;;10315483;28;20218;-72
2023/03/13 22:35:10;;;;;;;1.43;0.80;;;11.00;99.90;;;;;;10304840;28;20218;-74
2023/03/13 22:40:11;;;;;;;3.43;1.03;;;10.90;99.90;;;;;;10308588;28;20240;-71
2023/03/13 22:45:15;;;;;;;1.90;0.93;;;10.90;99.90;;;;;;10321693;28;20245;-72
2023/03/13 22:50:19;;;;;;;1.20;0.93;;;10.80;99.90;;;;;;10307686;28;20213;-72
2023/03/13 22:55:20;;;;;;;1.30;0.80;;;10.80;99.90;;;;;;10315055;28;20616;-72
2023/03/13 23:00:21;;;;;;;1.30;1.07;;;10.80;99.90;;;;;;10314188;28;20237;-72
2023/03/13 23:05:22;;;;;;;1.77;1.00;;;10.80;99.90;;;;;;10303148;28;20197;-73
2023/03/13 23:10:23;;;;;;;1.23;1.10;;;10.80;99.90;;;;;;10307989;28;20197;-74
2023/03/13 23:15:23;;;;;;;1.93;0.80;;;10.70;99.90;;;;;;10317010;28;20195;-75
2023/03/13 23:20:24;;;;;;;1.67;0.80;;;10.70;99.90;;;;;;10313892;28;20225;-73
2023/03/13 23:25:24;;;;;;;1.33;0.80;;;10.70;99.90;;;;;;10313298;28;20222;-73
2023/03/13 23:30:25;;;;;;;1.33;1.13;;;10.70;99.90;;;;;;10307070;28;20589;-73
2023/03/13 23:35:28;;;;;;;2.87;1.20;;;10.70;99.90;;;;;;10318551;28;20745;-73
2023/03/13 23:40:29;;;;;;;1.87;1.17;;;10.70;99.90;;;;;;10337799;28;20249;-72
2023/03/13 23:45:30;;;;;;;1.80;1.07;;;10.70;99.90;;;;;;10311164;28;20244;-72
2023/03/13 23:50:30;;;;;;;1.60;1.07;;;10.80;99.90;;;;;;10307900;28;20257;-72
2023/03/13 23:55:31;;;;;;;2.47;0.80;;;10.90;99.90;;;;;;10311050;28;20236;-72
